createdAt,value
2019-05-09T00:02:15.126Z,94.00
2019-05-09T00:04:44.381Z,94.00
2019-05-09T00:07:14.060Z,93.80
2019-05-09T00:09:44.115Z,93.80
2019-05-09T00:12:14.159Z,94.00
2019-05-09T00:14:43.661Z,94.40
2019-05-09T00:17:14.100Z,94.20
2019-05-09T00:19:44.553Z,94.20
2019-05-09T00:22:13.924Z,93.80
2019-05-09T00:24:44.735Z,94.00
2019-05-09T00:27:14.362Z,94.40
2019-05-09T00:29:45.357Z,94.30
2019-05-09T00:32:16.307Z,94.30
2019-05-09T00:34:47.211Z,94.40
2019-05-09T00:37:16.483Z,94.50
2019-05-09T00:39:45.771Z,95.10
2019-05-09T00:42:15.081Z,95.00
2019-05-09T00:44:45.925Z,94.90
2019-05-09T00:47:25.944Z,94.60
2019-05-09T00:49:55.125Z,94.70
2019-05-09T00:52:24.407Z,95.00
2019-05-09T00:54:53.652Z,95.10
2019-05-09T00:57:27.281Z,95.10
2019-05-09T00:59:56.557Z,95.10
2019-05-09T01:02:25.844Z,95.00
2019-05-09T01:04:55.099Z,95.10
2019-05-09T01:07:24.312Z,95.30
2019-05-09T01:09:54.295Z,95.50
2019-05-09T01:12:23.754Z,95.40
2019-05-09T01:14:53.907Z,95.30
2019-05-09T01:17:24.085Z,95.40
2019-05-09T01:19:54.670Z,95.40
2019-05-09T01:22:23.938Z,95.50
2019-05-09T01:24:53.445Z,95.40
2019-05-09T01:27:23.323Z,95.70
2019-05-09T01:29:53.511Z,95.50
2019-05-09T01:32:43.395Z,95.60
2019-05-09T01:35:13.236Z,95.60
2019-05-09T01:37:43.397Z,95.70
2019-05-09T01:40:13.884Z,95.80
2019-05-09T01:42:43.310Z,96.10
2019-05-09T01:45:14.163Z,96.20
2019-05-09T01:47:43.540Z,96.30
2019-05-09T01:50:14.042Z,96.40
2019-05-09T01:52:44.428Z,96.20
2019-05-09T01:55:14.223Z,95.90
2019-05-09T01:57:47.739Z,96.20
2019-05-09T02:00:14.553Z,95.90
2019-05-09T02:02:43.839Z,95.90
2019-05-09T02:05:13.566Z,95.90
2019-05-09T02:07:43.852Z,95.80
2019-05-09T02:10:13.964Z,95.80
2019-05-09T02:12:43.411Z,95.80
2019-05-09T02:15:17.041Z,95.70
2019-05-09T02:17:58.292Z,95.60
2019-05-09T02:20:18.942Z,95.50
2019-05-09T02:22:48.161Z,95.40
2019-05-09T02:25:17.425Z,95.60
2019-05-09T02:27:46.689Z,95.50
2019-05-09T02:30:15.975Z,95.60
2019-05-09T02:32:45.447Z,96.10
2019-05-09T02:35:14.870Z,94.90
2019-05-09T02:37:44.104Z,95.20
2019-05-09T02:40:13.354Z,95.50
2019-05-09T02:42:42.621Z,95.40
2019-05-09T02:45:11.903Z,95.50
2019-05-09T02:47:41.164Z,95.50
2019-05-09T02:50:10.460Z,95.80
2019-05-09T02:52:40.133Z,95.30
2019-05-09T02:55:10.306Z,95.40
2019-05-09T02:57:39.998Z,95.50
2019-05-09T03:00:11.459Z,95.50
2019-05-09T03:02:45.227Z,95.40
2019-05-09T03:05:14.467Z,95.50
2019-05-09T03:07:49.621Z,95.60
2019-05-09T03:10:19.712Z,95.20
2019-05-09T03:12:50.223Z,95.40
2019-05-09T03:15:20.270Z,95.50
2019-05-09T03:17:49.993Z,95.30
2019-05-09T03:20:29.831Z,95.60
2019-05-09T03:22:59.103Z,95.60
2019-05-09T03:25:29.079Z,95.70
2019-05-09T03:28:10.194Z,95.80
2019-05-09T03:30:49.836Z,95.80
2019-05-09T03:33:20.207Z,95.80
2019-05-09T03:35:48.500Z,95.90
2019-05-09T03:38:18.010Z,95.80
2019-05-09T03:40:47.765Z,95.90
2019-05-09T03:43:18.373Z,96.00
2019-05-09T03:45:59.279Z,96.10
2019-05-09T03:48:32.672Z,96.20
2019-05-09T03:51:02.919Z,96.10
2019-05-09T03:53:32.201Z,95.90
2019-05-09T03:56:04.159Z,95.90
2019-05-09T03:58:33.473Z,96.10
2019-05-09T04:01:02.723Z,96.10
2019-05-09T04:03:31.981Z,96.10
2019-05-09T04:06:03.035Z,96.20
2019-05-09T04:08:32.142Z,96.30
2019-05-09T04:11:01.446Z,96.40
2019-05-09T04:13:32.281Z,96.20
2019-05-09T04:16:01.548Z,96.60
2019-05-09T04:18:30.810Z,96.50
2019-05-09T04:21:00.331Z,96.20
2019-05-09T04:23:29.827Z,96.20
2019-05-09T04:26:04.528Z,96.00
2019-05-09T04:28:33.853Z,95.50
2019-05-09T04:31:03.047Z,95.80
2019-05-09T04:33:32.292Z,95.80
2019-05-09T04:36:01.471Z,96.00
2019-05-09T04:38:30.682Z,96.00
2019-05-09T04:40:59.942Z,96.20
2019-05-09T04:43:35.562Z,96.00
2019-05-09T04:46:03.723Z,95.90
2019-05-09T04:48:34.796Z,95.50
2019-05-09T04:51:07.604Z,95.60
2019-05-09T04:53:37.759Z,95.50
2019-05-09T04:56:21.006Z,95.60
2019-05-09T04:58:50.368Z,96.20
2019-05-09T05:01:21.268Z,95.90
2019-05-09T05:03:53.224Z,96.10
2019-05-09T05:06:22.495Z,96.10
2019-05-09T05:08:51.770Z,96.20
2019-05-09T05:11:21.212Z,96.20
2019-05-09T05:13:50.398Z,96.20
2019-05-09T05:16:19.701Z,96.10
2019-05-09T05:18:48.982Z,96.00
2019-05-09T05:21:20.379Z,95.80
2019-05-09T05:23:50.787Z,95.80
2019-05-09T05:26:21.555Z,95.70
2019-05-09T05:28:50.840Z,95.60
2019-05-09T05:31:20.149Z,95.80
2019-05-09T05:34:08.988Z,95.50
2019-05-09T05:36:38.436Z,95.20
2019-05-09T05:39:09.218Z,94.60
2019-05-09T05:41:38.516Z,94.70
2019-05-09T05:44:08.538Z,94.00
2019-05-09T05:46:42.643Z,93.50
2019-05-09T05:49:11.899Z,93.80
2019-05-09T05:51:50.330Z,93.10
2019-05-09T05:54:20.679Z,91.60
2019-05-09T05:56:50.061Z,90.50
2019-05-09T05:59:19.318Z,87.40
2019-05-09T06:01:48.751Z,82.60
2019-05-09T06:04:18.772Z,82.30
2019-05-09T06:06:48.358Z,80.00
2019-05-09T06:09:19.061Z,75.80
2019-05-09T06:11:48.785Z,73.20
2019-05-09T06:14:18.726Z,71.40
2019-05-09T06:16:48.756Z,70.70
2019-05-09T06:19:18.373Z,68.60
2019-05-09T06:21:51.725Z,65.20
2019-05-09T06:24:18.975Z,64.30
2019-05-09T06:26:48.275Z,61.10
2019-05-09T06:29:17.983Z,61.80
2019-05-09T06:31:48.429Z,59.80
2019-05-09T06:34:18.735Z,57.60
2019-05-09T06:36:49.031Z,56.90
2019-05-09T06:39:19.584Z,55.10
2019-05-09T06:41:48.857Z,54.70
2019-05-09T06:44:22.755Z,52.60
2019-05-09T06:46:53.676Z,53.50
2019-05-09T06:49:29.337Z,52.60
2019-05-09T06:51:57.913Z,51.20
2019-05-09T06:54:27.867Z,49.40
2019-05-09T06:56:58.494Z,50.30
2019-05-09T06:59:28.429Z,48.80
2019-05-09T07:02:00.657Z,49.40
2019-05-09T07:04:31.558Z,49.00
2019-05-09T07:07:02.487Z,49.20
2019-05-09T07:09:33.436Z,46.90
2019-05-09T07:12:02.781Z,45.00
2019-05-09T07:14:41.644Z,43.90
2019-05-09T07:17:09.448Z,44.60
2019-05-09T07:19:38.718Z,43.00
2019-05-09T07:22:18.184Z,42.30
2019-05-09T07:25:07.687Z,42.90
2019-05-09T07:27:39.065Z,42.00
2019-05-09T07:30:10.286Z,41.20
2019-05-09T07:32:41.176Z,41.00
2019-05-09T07:35:11.447Z,40.20
2019-05-09T07:37:40.720Z,39.20
2019-05-09T07:40:10.036Z,38.30
2019-05-09T07:42:39.340Z,37.40
2019-05-09T07:45:09.019Z,36.00
2019-05-09T07:47:38.844Z,35.50
2019-05-09T07:50:08.755Z,34.60
2019-05-09T07:52:38.923Z,34.90
2019-05-09T07:55:09.066Z,33.80
2019-05-09T07:57:46.520Z,33.50
2019-05-09T08:00:09.314Z,35.60
2019-05-09T08:02:38.827Z,34.20
2019-05-09T08:05:08.665Z,34.10
2019-05-09T08:07:38.341Z,34.00
2019-05-09T08:10:08.897Z,34.60
2019-05-09T08:12:39.034Z,35.60
2019-05-09T08:15:16.231Z,36.10
2019-05-09T08:17:39.384Z,38.10
2019-05-09T08:20:08.595Z,38.90
2019-05-09T08:22:42.097Z,36.50
2019-05-09T08:25:08.996Z,33.70
2019-05-09T08:27:38.303Z,33.00
2019-05-09T08:30:08.133Z,35.00
2019-05-09T08:32:37.920Z,38.40
2019-05-09T08:35:08.279Z,40.20
2019-05-09T08:37:39.184Z,40.00
2019-05-09T08:40:08.521Z,40.90
2019-05-09T08:42:38.052Z,41.50
2019-05-09T08:45:12.828Z,39.20
2019-05-09T08:47:38.594Z,37.70
2019-05-09T08:50:09.543Z,34.60
2019-05-09T08:52:39.979Z,33.50
2019-05-09T08:55:09.341Z,32.10
2019-05-09T08:57:38.649Z,32.30
2019-05-09T09:00:08.854Z,32.00
2019-05-09T09:02:39.639Z,29.80
2019-05-09T09:05:10.012Z,30.50
2019-05-09T09:07:39.269Z,29.70
2019-05-09T09:10:08.754Z,32.00
2019-05-09T09:12:38.916Z,34.90
2019-05-09T09:15:08.315Z,32.80
2019-05-09T09:17:38.498Z,31.60
2019-05-09T09:20:08.180Z,30.70
2019-05-09T09:22:37.678Z,32.00
2019-05-09T09:25:09.193Z,29.70
2019-05-09T09:27:38.365Z,28.40
2019-05-09T09:30:19.926Z,27.80
2019-05-09T09:32:39.001Z,28.00
2019-05-09T09:35:09.268Z,28.10
2019-05-09T09:37:48.496Z,27.40
2019-05-09T09:40:09.558Z,29.20
2019-05-09T09:42:39.696Z,32.10
2019-05-09T09:45:09.366Z,31.70
2019-05-09T09:47:39.902Z,29.80
2019-05-09T09:50:10.822Z,29.30
2019-05-09T09:52:40.091Z,30.80
2019-05-09T09:55:09.238Z,34.30
2019-05-09T09:57:38.452Z,37.10
2019-05-09T10:00:25.747Z,39.90
2019-05-09T10:02:54.981Z,41.30
2019-05-09T10:05:24.121Z,42.70
2019-05-09T10:07:53.351Z,44.00
2019-05-09T10:10:33.552Z,44.10
2019-05-09T10:13:04.137Z,42.70
2019-05-09T10:15:53.775Z,42.40
2019-05-09T10:18:24.679Z,41.70
2019-05-09T10:21:01.063Z,41.80
2019-05-09T10:23:30.241Z,39.90
2019-05-09T10:25:59.401Z,35.30
2019-05-09T10:28:29.988Z,32.60
2019-05-09T10:30:59.601Z,33.30
2019-05-09T10:33:28.844Z,35.30
2019-05-09T10:36:04.118Z,36.50
2019-05-09T10:38:28.999Z,37.70
2019-05-09T10:41:01.022Z,38.10
2019-05-09T10:43:37.979Z,38.70
2019-05-09T10:46:22.441Z,40.50
2019-05-09T10:48:53.286Z,39.00
2019-05-09T10:51:22.462Z,39.50
2019-05-09T10:53:51.632Z,39.90
2019-05-09T10:56:20.779Z,40.20
2019-05-09T10:58:50.149Z,40.60
2019-05-09T11:01:19.379Z,41.60
2019-05-09T11:03:48.641Z,42.70
2019-05-09T11:06:18.537Z,43.30
2019-05-09T11:08:49.084Z,43.70
2019-05-09T11:11:18.626Z,44.20
2019-05-09T11:13:49.163Z,45.60
2019-05-09T11:16:18.635Z,47.30
2019-05-09T11:18:48.566Z,49.10
2019-05-09T11:21:19.210Z,51.10
2019-05-09T11:23:49.198Z,55.20
2019-05-09T11:26:20.141Z,59.30
2019-05-09T11:28:49.397Z,60.40
2019-05-09T11:31:19.061Z,60.30
2019-05-09T11:33:48.713Z,58.70
2019-05-09T11:36:21.092Z,57.70
2019-05-09T11:38:49.668Z,58.80
2019-05-09T11:41:19.672Z,57.80
2019-05-09T11:43:49.043Z,58.10
2019-05-09T11:46:18.584Z,58.30
2019-05-09T11:48:47.979Z,59.00
2019-05-09T11:51:20.341Z,60.70
2019-05-09T11:53:48.874Z,59.00
2019-05-09T11:56:18.298Z,55.40
2019-05-09T11:58:48.288Z,54.70
2019-05-09T12:01:19.071Z,49.40
2019-05-09T12:03:52.080Z,43.80
2019-05-09T12:06:20.447Z,38.90
2019-05-09T12:08:49.838Z,37.00
2019-05-09T12:11:19.039Z,32.90
2019-05-09T12:13:48.901Z,29.10
2019-05-09T12:16:18.840Z,28.40
2019-05-09T12:18:48.969Z,28.70
2019-05-09T12:21:19.327Z,28.70
2019-05-09T12:23:49.647Z,27.20
2019-05-09T12:26:19.327Z,25.80
2019-05-09T12:28:48.873Z,25.80
2019-05-09T12:31:19.263Z,27.40
2019-05-09T12:33:48.715Z,27.00
2019-05-09T12:36:19.156Z,26.40
2019-05-09T12:38:49.704Z,25.20
2019-05-09T12:41:19.582Z,26.00
2019-05-09T12:43:48.743Z,28.50
2019-05-09T12:46:17.898Z,28.40
2019-05-09T12:48:48.148Z,26.10
2019-05-09T12:51:18.398Z,27.70
2019-05-09T12:53:48.689Z,27.60
2019-05-09T12:56:18.858Z,27.80
2019-05-09T12:58:48.271Z,29.90
2019-05-09T13:01:18.708Z,31.00
2019-05-09T13:03:48.691Z,32.70
2019-05-09T13:06:19.983Z,32.10
2019-05-09T13:08:48.849Z,33.00
2019-05-09T13:11:18.773Z,33.60
2019-05-09T13:13:48.882Z,31.30
2019-05-09T13:16:22.660Z,29.90
2019-05-09T13:19:02.709Z,29.60
2019-05-09T13:21:33.071Z,30.30
2019-05-09T13:24:02.740Z,28.40
2019-05-09T13:26:32.238Z,30.00
2019-05-09T13:29:01.415Z,30.50
2019-05-09T13:31:30.641Z,31.20
2019-05-09T13:33:59.961Z,30.60
2019-05-09T13:36:29.105Z,29.90
2019-05-09T13:39:04.823Z,29.50
2019-05-09T13:41:29.138Z,29.30
2019-05-09T13:44:04.945Z,31.90
2019-05-09T13:46:29.168Z,34.80
2019-05-09T13:49:10.913Z,33.30
2019-05-09T13:51:29.186Z,31.80
2019-05-09T13:53:59.661Z,30.30
2019-05-09T13:56:28.882Z,28.30
2019-05-09T13:58:58.480Z,29.20
2019-05-09T14:01:27.941Z,30.10
2019-05-09T14:03:57.798Z,28.60
2019-05-09T14:06:27.729Z,27.20
2019-05-09T14:08:59.858Z,25.80
2019-05-09T14:11:29.146Z,27.60
2019-05-09T14:13:58.682Z,30.00
2019-05-09T14:16:28.652Z,32.00
2019-05-09T14:19:00.650Z,34.80
2019-05-09T14:21:29.906Z,37.20
2019-05-09T14:24:10.991Z,38.50
2019-05-09T14:26:30.256Z,38.70
2019-05-09T14:29:02.186Z,37.30
2019-05-09T14:31:32.457Z,36.50
2019-05-09T14:34:02.033Z,36.70
2019-05-09T14:36:31.265Z,37.80
2019-05-09T14:39:00.435Z,38.20
2019-05-09T14:41:29.795Z,36.70
2019-05-09T14:44:00.065Z,36.20
2019-05-09T14:46:29.296Z,37.70
2019-05-09T14:48:58.652Z,39.40
2019-05-09T14:51:28.596Z,40.60
2019-05-09T14:53:59.356Z,47.60
2019-05-09T14:56:30.143Z,49.90
2019-05-09T14:58:59.390Z,48.10
2019-05-09T15:01:29.771Z,46.20
2019-05-09T15:03:58.963Z,44.00
2019-05-09T15:06:29.040Z,43.40
2019-05-09T15:08:58.390Z,43.60
2019-05-09T15:11:28.364Z,45.30
2019-05-09T15:13:58.797Z,46.20
2019-05-09T15:16:28.429Z,43.10
2019-05-09T15:18:58.509Z,42.30
2019-05-09T15:21:28.040Z,43.60
2019-05-09T15:23:58.708Z,43.90
2019-05-09T15:26:28.346Z,44.80
2019-05-09T15:28:58.267Z,44.70
2019-05-09T15:31:28.617Z,44.90
2019-05-09T15:33:58.228Z,45.60
2019-05-09T15:36:27.427Z,46.70
2019-05-09T15:38:58.921Z,46.10
2019-05-09T15:41:27.817Z,45.40
2019-05-09T15:43:58.310Z,45.30
2019-05-09T15:46:29.399Z,45.50
2019-05-09T15:48:58.679Z,44.70
2019-05-09T15:51:28.035Z,44.30
2019-05-09T15:53:57.883Z,43.80
2019-05-09T15:56:28.791Z,44.60
2019-05-09T15:58:58.422Z,45.00
2019-05-09T16:01:27.933Z,46.00
2019-05-09T16:03:57.377Z,46.60
2019-05-09T16:06:32.577Z,46.40
2019-05-09T16:08:58.553Z,46.40
2019-05-09T16:11:28.551Z,46.80
2019-05-09T16:13:58.129Z,47.50
2019-05-09T16:16:30.027Z,47.70
2019-05-09T16:18:59.191Z,48.30
2019-05-09T16:21:28.349Z,48.80
2019-05-09T16:23:59.258Z,49.10
2019-05-09T16:26:29.180Z,49.90
2019-05-09T16:28:59.711Z,50.30
2019-05-09T16:31:29.046Z,50.00
2019-05-09T16:33:58.409Z,49.90
2019-05-09T16:36:28.154Z,49.40
2019-05-09T16:38:58.369Z,47.90
2019-05-09T16:41:28.163Z,48.50
2019-05-09T16:43:58.360Z,47.80
2019-05-09T16:46:28.634Z,47.60
2019-05-09T16:48:58.570Z,47.40
2019-05-09T16:51:28.889Z,46.20
2019-05-09T16:53:58.508Z,45.40
2019-05-09T16:56:28.724Z,45.90
2019-05-09T16:58:58.241Z,46.40
2019-05-09T17:01:28.379Z,47.10
2019-05-09T17:03:58.198Z,47.20
2019-05-09T17:06:27.633Z,47.40
2019-05-09T17:08:58.415Z,47.30
2019-05-09T17:11:27.940Z,47.50
2019-05-09T17:13:59.272Z,48.20
2019-05-09T17:16:28.723Z,48.50
2019-05-09T17:18:58.294Z,48.50
2019-05-09T17:21:29.367Z,48.40
2019-05-09T17:23:59.565Z,48.30
2019-05-09T17:26:28.795Z,48.40
2019-05-09T17:28:57.996Z,48.10
2019-05-09T17:31:27.652Z,48.00
2019-05-09T17:33:57.947Z,48.60
2019-05-09T17:36:28.565Z,49.00
2019-05-09T17:39:00.323Z,49.40
2019-05-09T17:41:29.565Z,50.40
2019-05-09T17:43:58.885Z,50.00
2019-05-09T17:46:29.114Z,49.90
2019-05-09T17:48:58.471Z,50.60
2019-05-09T17:51:35.692Z,50.90
2019-05-09T17:53:59.883Z,51.50
2019-05-09T17:56:29.132Z,51.90
2019-05-09T17:58:58.418Z,52.40
2019-05-09T18:01:27.788Z,53.00
2019-05-09T18:03:59.107Z,53.40
2019-05-09T18:06:28.297Z,54.20
2019-05-09T18:08:57.794Z,53.80
2019-05-09T18:11:27.079Z,53.90
2019-05-09T18:13:56.246Z,54.20
2019-05-09T18:16:29.567Z,54.30
2019-05-09T18:19:00.789Z,54.60
2019-05-09T18:21:46.536Z,54.90
2019-05-09T18:24:02.898Z,54.90
2019-05-09T18:26:32.065Z,55.20
2019-05-09T18:29:01.957Z,55.30
2019-05-09T18:31:32.975Z,55.70
2019-05-09T18:34:03.106Z,56.00
2019-05-09T18:36:32.488Z,55.90
2019-05-09T18:39:01.705Z,56.00
2019-05-09T18:41:32.143Z,56.30
2019-05-09T18:44:01.363Z,56.60
2019-05-09T18:46:34.341Z,56.80
2019-05-09T18:49:08.131Z,57.20
2019-05-09T18:51:37.375Z,57.40
2019-05-09T18:54:06.677Z,57.60
2019-05-09T18:56:36.028Z,58.00
2019-05-09T18:59:05.205Z,58.10
2019-05-09T19:01:34.612Z,58.40
2019-05-09T19:04:03.765Z,58.60
2019-05-09T19:06:32.937Z,58.90
2019-05-09T19:09:02.397Z,58.80
2019-05-09T19:11:31.909Z,58.90
2019-05-09T19:14:01.891Z,59.40
2019-05-09T19:16:44.816Z,59.60
2019-05-09T19:19:15.649Z,60.10
2019-05-09T19:21:46.525Z,60.50
2019-05-09T19:24:15.801Z,60.60
2019-05-09T19:26:45.062Z,61.00
2019-05-09T19:29:14.224Z,61.20
2019-05-09T19:31:43.439Z,61.30
2019-05-09T19:34:12.610Z,61.10
2019-05-09T19:36:41.920Z,61.40
2019-05-09T19:39:11.069Z,61.40
2019-05-09T19:41:40.242Z,60.90
2019-05-09T19:44:09.479Z,61.10
2019-05-09T19:46:38.767Z,61.40
2019-05-09T19:49:09.205Z,61.70
2019-05-09T19:51:38.400Z,61.90
2019-05-09T19:54:07.601Z,62.30
2019-05-09T19:56:36.839Z,62.40
2019-05-09T19:59:07.843Z,62.60
2019-05-09T20:01:37.653Z,62.60
2019-05-09T20:04:06.968Z,62.60
2019-05-09T20:06:37.232Z,62.70
2019-05-09T20:09:09.940Z,63.10
2019-05-09T20:11:46.887Z,63.30
2019-05-09T20:14:17.952Z,63.10
2019-05-09T20:16:56.115Z,63.10
2019-05-09T20:19:25.515Z,63.20
2019-05-09T20:21:54.693Z,63.70
2019-05-09T20:24:23.983Z,63.60
2019-05-09T20:26:53.231Z,63.90
2019-05-09T20:29:22.408Z,64.10
2019-05-09T20:31:51.563Z,64.10
2019-05-09T20:34:20.808Z,64.50
2019-05-09T20:36:49.979Z,65.10
2019-05-09T20:39:19.402Z,66.30
2019-05-09T20:41:48.820Z,65.80
2019-05-09T20:44:18.198Z,65.90
2019-05-09T20:46:47.686Z,66.00
2019-05-09T20:49:17.052Z,66.10
2019-05-09T20:51:46.454Z,66.30
2019-05-09T20:54:20.916Z,66.50
2019-05-09T20:56:46.873Z,66.50
2019-05-09T20:59:16.356Z,67.70
2019-05-09T21:01:45.704Z,67.20
2019-05-09T21:04:15.074Z,67.40
2019-05-09T21:06:44.431Z,67.30
2019-05-09T21:09:13.817Z,67.70
2019-05-09T21:11:43.287Z,67.80
2019-05-09T21:14:12.723Z,68.00
2019-05-09T21:16:42.109Z,68.10
2019-05-09T21:19:11.468Z,68.30
2019-05-09T21:21:42.078Z,68.30
2019-05-09T21:24:11.583Z,68.60
2019-05-09T21:26:40.946Z,68.80
2019-05-09T21:29:10.311Z,69.00
2019-05-09T21:31:39.786Z,69.40
2019-05-09T21:34:09.119Z,69.40
2019-05-09T21:36:38.294Z,69.70
2019-05-09T21:39:07.571Z,69.90
2019-05-09T21:41:36.744Z,70.00
2019-05-09T21:44:05.942Z,70.20
2019-05-09T21:46:35.153Z,70.80
2019-05-09T21:49:04.381Z,71.10
2019-05-09T21:51:33.583Z,71.40
2019-05-09T21:54:02.800Z,71.90
2019-05-09T21:56:31.947Z,72.00
2019-05-09T21:59:01.105Z,72.10
2019-05-09T22:01:30.244Z,72.10
2019-05-09T22:03:59.529Z,72.20
2019-05-09T22:06:28.685Z,72.60
2019-05-09T22:08:57.937Z,72.80
2019-05-09T22:11:27.110Z,73.10
2019-05-09T22:13:56.273Z,73.10
2019-05-09T22:16:25.448Z,73.20
2019-05-09T22:18:55.663Z,73.10
2019-05-09T22:21:24.928Z,73.10
2019-05-09T22:23:56.874Z,72.90
2019-05-09T22:26:25.010Z,73.10
2019-05-09T22:28:54.229Z,73.10
2019-05-09T22:31:23.392Z,73.40
2019-05-09T22:33:52.577Z,73.70
2019-05-09T22:36:21.801Z,73.70
2019-05-09T22:38:50.998Z,73.60
2019-05-09T22:41:20.150Z,73.50
2019-05-09T22:43:49.336Z,73.50
2019-05-09T22:46:19.554Z,73.70
2019-05-09T22:48:48.694Z,74.00
2019-05-09T22:51:17.859Z,74.30
2019-05-09T22:53:47.002Z,74.60
2019-05-09T22:56:16.159Z,74.70
2019-05-09T22:58:45.295Z,75.20
2019-05-09T23:01:14.474Z,75.60
2019-05-09T23:03:43.646Z,75.90
2019-05-09T23:06:12.795Z,76.10
2019-05-09T23:08:41.934Z,76.50
2019-05-09T23:11:11.099Z,76.70
2019-05-09T23:13:52.486Z,76.80
2019-05-09T23:16:23.716Z,77.00
2019-05-09T23:18:53.363Z,77.20
2019-05-09T23:21:24.173Z,77.30
2019-05-09T23:23:54.966Z,77.20
2019-05-09T23:26:24.432Z,77.10
2019-05-09T23:28:53.582Z,77.20
2019-05-09T23:31:27.180Z,77.20
2019-05-09T23:33:56.313Z,77.20
2019-05-09T23:36:25.473Z,77.90
2019-05-09T23:39:08.349Z,77.20
2019-05-09T23:41:37.517Z,77.30
2019-05-09T23:44:06.700Z,77.30
2019-05-09T23:46:35.919Z,77.40
2019-05-09T23:49:05.084Z,77.40
2019-05-09T23:51:46.067Z,77.50
2019-05-09T23:54:45.419Z,77.20
2019-05-09T23:57:24.343Z,77.30
